Aérodrome :







RETROUVEZ-NOUS SUR...

 
LOGIN :

S'inscrire | Disclaimer

   EN    FR    IT 

 









Légende :    VFR   VFR Marginal   IFR   IFR Intensif   IFR Très Intensif
Visi : 
Plafond : 
>= 8 km
>= 3000ft
5 à 8 km
1000 à 3000 ft
1500m à 5 km
500 à 1000 ft
800 à 1500m
200 à 500 ft
< 800m
< 200 ft
Symboles :   Orages  Brouillard  Fortes neiges  Fortes précipitations  Vent > 20 kt






- Altitude de l'aérodrome : 121 ft
- Code IATA : YBX


CYBX - Lourdes De Blanc Sablon

DERNIER METAR :
  • 260800Z 09013KT 5SM -SN OVC020 M07/M09 A3000 RMK SC8 SLP162

METARs EXPIRÉS :
  • 260700Z 10011G16KT 5SM -SN OVC019 M07/M08 A3000 RMK SC8 SLP163
  • 260600Z 10011KT 8SM -SN OVC016 M07/M08 A3000 RMK SC8 SLP162

TAF TAF CYBX
Valide du 26 à 08h jusqu'au 26 à 20h UTC


260738Z 2608/2620 10010KT P6SM OVC015
TEMPO 2608/2620 4SM -SN OVC009
BECMG 2618/2620 02010KT RMK NXT FCST BY 261400Z



MET'MAP, la Météo Aéronautique d'un coup d'oeil ! - Copyright ORBIFLY Décembre 2007 - Disclaimer

ORBIFLY MET'MAP TEAM :

Programmation & Développement : Alexandra Zaïnal
Sur une idée originale de : Baudouin d'Aumeries
Assistance à la programmation : Marc-Olivier Méhu
Soutien technique & logistique : Manuel Goepfert

Contact : metmap@orbifly.com




SOURCES & CREDITS :

   NOAA